sensor_id;sensor_type;location;lat;lon;timestamp;P1;durP1;ratioP1;P2;durP2;ratioP2
20671;SDS011;10495;50.922;4.760;2022-12-07T00:01:32;14.27;;;9.83;;
20671;SDS011;10495;50.922;4.760;2022-12-07T00:04:00;16.07;;;9.60;;
20671;SDS011;10495;50.922;4.760;2022-12-07T00:06:34;12.27;;;9.03;;
20671;SDS011;10495;50.922;4.760;2022-12-07T00:09:02;12.53;;;9.63;;
20671;SDS011;10495;50.922;4.760;2022-12-07T00:11:28;11.73;;;8.90;;
20671;SDS011;10495;50.922;4.760;2022-12-07T00:13:55;11.53;;;8.77;;
20671;SDS011;10495;50.922;4.760;2022-12-07T00:16:26;13.13;;;9.20;;
20671;SDS011;10495;50.922;4.760;2022-12-07T00:18:53;11.43;;;8.93;;
20671;SDS011;10495;50.922;4.760;2022-12-07T00:21:20;14.50;;;10.40;;
20671;SDS011;10495;50.922;4.760;2022-12-07T00:23:48;12.87;;;9.40;;
20671;SDS011;10495;50.922;4.760;2022-12-07T00:26:16;12.57;;;9.67;;
20671;SDS011;10495;50.922;4.760;2022-12-07T00:28:48;11.13;;;8.73;;
20671;SDS011;10495;50.922;4.760;2022-12-07T00:31:19;15.07;;;9.63;;
20671;SDS011;10495;50.922;4.760;2022-12-07T00:33:46;12.57;;;10.23;;
20671;SDS011;10495;50.922;4.760;2022-12-07T00:36:14;14.40;;;10.70;;
20671;SDS011;10495;50.922;4.760;2022-12-07T00:38:41;15.83;;;10.53;;
20671;SDS011;10495;50.922;4.760;2022-12-07T00:41:10;14.90;;;11.03;;
20671;SDS011;10495;50.922;4.760;2022-12-07T00:43:37;15.63;;;10.60;;
20671;SDS011;10495;50.922;4.760;2022-12-07T00:46:03;14.80;;;9.87;;
20671;SDS011;10495;50.922;4.760;2022-12-07T00:48:29;16.40;;;12.03;;
20671;SDS011;10495;50.922;4.760;2022-12-07T00:50:55;15.20;;;10.37;;
20671;SDS011;10495;50.922;4.760;2022-12-07T00:53:21;15.83;;;11.17;;
20671;SDS011;10495;50.922;4.760;2022-12-07T00:55:47;14.83;;;10.03;;
20671;SDS011;10495;50.922;4.760;2022-12-07T00:58:13;15.20;;;11.17;;
20671;SDS011;10495;50.922;4.760;2022-12-07T01:00:39;19.43;;;11.83;;
20671;SDS011;10495;50.922;4.760;2022-12-07T01:03:07;13.50;;;11.10;;
20671;SDS011;10495;50.922;4.760;2022-12-07T01:05:35;15.37;;;10.23;;
20671;SDS011;10495;50.922;4.760;2022-12-07T01:08:01;13.97;;;10.13;;
20671;SDS011;10495;50.922;4.760;2022-12-07T01:10:27;15.43;;;10.17;;
20671;SDS011;10495;50.922;4.760;2022-12-07T01:12:55;15.70;;;11.10;;
20671;SDS011;10495;50.922;4.760;2022-12-07T01:15:20;13.23;;;10.67;;
20671;SDS011;10495;50.922;4.760;2022-12-07T01:17:46;16.27;;;10.83;;
20671;SDS011;10495;50.922;4.760;2022-12-07T01:20:12;15.67;;;11.27;;
20671;SDS011;10495;50.922;4.760;2022-12-07T01:22:38;17.93;;;11.70;;
20671;SDS011;10495;50.922;4.760;2022-12-07T01:25:05;17.93;;;12.00;;
20671;SDS011;10495;50.922;4.760;2022-12-07T01:27:32;15.97;;;11.07;;
20671;SDS011;10495;50.922;4.760;2022-12-07T01:29:58;15.27;;;11.13;;
20671;SDS011;10495;50.922;4.760;2022-12-07T01:32:24;15.80;;;10.20;;
20671;SDS011;10495;50.922;4.760;2022-12-07T01:34:49;15.80;;;10.97;;
20671;SDS011;10495;50.922;4.760;2022-12-07T01:37:15;15.00;;;11.10;;
20671;SDS011;10495;50.922;4.760;2022-12-07T01:39:41;13.47;;;11.00;;
20671;SDS011;10495;50.922;4.760;2022-12-07T01:42:10;14.83;;;10.83;;
20671;SDS011;10495;50.922;4.760;2022-12-07T01:47:39;16.47;;;12.57;;
20671;SDS011;10495;50.922;4.760;2022-12-07T01:50:06;18.33;;;12.63;;
20671;SDS011;10495;50.922;4.760;2022-12-07T01:52:32;18.50;;;12.50;;
20671;SDS011;10495;50.922;4.760;2022-12-07T01:55:02;19.87;;;12.53;;
20671;SDS011;10495;50.922;4.760;2022-12-07T01:57:30;15.30;;;11.43;;
20671;SDS011;10495;50.922;4.760;2022-12-07T01:59:58;18.57;;;13.27;;
20671;SDS011;10495;50.922;4.760;2022-12-07T02:02:30;19.87;;;12.40;;
20671;SDS011;10495;50.922;4.760;2022-12-07T02:05:02;22.17;;;13.63;;
20671;SDS011;10495;50.922;4.760;2022-12-07T02:07:30;19.93;;;12.70;;
20671;SDS011;10495;50.922;4.760;2022-12-07T02:09:57;18.67;;;12.47;;
20671;SDS011;10495;50.922;4.760;2022-12-07T02:12:36;16.57;;;12.30;;
20671;SDS011;10495;50.922;4.760;2022-12-07T02:15:02;18.50;;;12.53;;
20671;SDS011;10495;50.922;4.760;2022-12-07T02:17:30;18.37;;;12.87;;
20671;SDS011;10495;50.922;4.760;2022-12-07T02:20:32;16.53;;;11.60;;
20671;SDS011;10495;50.922;4.760;2022-12-07T02:31:46;15.37;;;11.37;;
20671;SDS011;10495;50.922;4.760;2022-12-07T02:34:34;16.07;;;11.87;;
20671;SDS011;10495;50.922;4.760;2022-12-07T02:40:46;16.97;;;12.23;;
20671;SDS011;10495;50.922;4.760;2022-12-07T02:42:50;16.07;;;11.60;;
20671;SDS011;10495;50.922;4.760;2022-12-07T02:45:38;17.80;;;12.33;;
20671;SDS011;10495;50.922;4.760;2022-12-07T02:48:05;17.77;;;12.80;;
20671;SDS011;10495;50.922;4.760;2022-12-07T02:50:33;15.53;;;11.87;;
20671;SDS011;10495;50.922;4.760;2022-12-07T02:52:59;17.20;;;11.73;;
20671;SDS011;10495;50.922;4.760;2022-12-07T02:55:26;16.23;;;12.30;;
20671;SDS011;10495;50.922;4.760;2022-12-07T03:01:10;17.47;;;11.47;;
20671;SDS011;10495;50.922;4.760;2022-12-07T03:03:44;17.83;;;12.17;;
20671;SDS011;10495;50.922;4.760;2022-12-07T03:06:39;20.97;;;12.70;;
20671;SDS011;10495;50.922;4.760;2022-12-07T03:09:20;14.53;;;11.17;;
20671;SDS011;10495;50.922;4.760;2022-12-07T03:12:12;16.27;;;12.30;;
20671;SDS011;10495;50.922;4.760;2022-12-07T03:17:45;17.80;;;12.40;;
20671;SDS011;10495;50.922;4.760;2022-12-07T03:20:13;18.40;;;12.67;;
20671;SDS011;10495;50.922;4.760;2022-12-07T03:22:41;18.53;;;12.00;;
20671;SDS011;10495;50.922;4.760;2022-12-07T03:25:09;18.80;;;12.33;;
20671;SDS011;10495;50.922;4.760;2022-12-07T03:27:41;16.43;;;12.33;;
20671;SDS011;10495;50.922;4.760;2022-12-07T03:30:18;15.30;;;10.90;;
20671;SDS011;10495;50.922;4.760;2022-12-07T03:35:29;16.53;;;11.27;;
20671;SDS011;10495;50.922;4.760;2022-12-07T03:41:18;16.37;;;10.10;;
20671;SDS011;10495;50.922;4.760;2022-12-07T03:43:53;15.97;;;11.63;;
20671;SDS011;10495;50.922;4.760;2022-12-07T03:46:24;15.53;;;10.77;;
20671;SDS011;10495;50.922;4.760;2022-12-07T03:57:09;15.53;;;10.93;;
20671;SDS011;10495;50.922;4.760;2022-12-07T03:59:37;13.47;;;9.80;;
20671;SDS011;10495;50.922;4.760;2022-12-07T04:02:04;16.17;;;11.30;;
20671;SDS011;10495;50.922;4.760;2022-12-07T04:04:32;16.03;;;11.10;;
20671;SDS011;10495;50.922;4.760;2022-12-07T04:06:58;15.60;;;10.93;;
20671;SDS011;10495;50.922;4.760;2022-12-07T04:09:24;16.53;;;10.17;;
20671;SDS011;10495;50.922;4.760;2022-12-07T04:11:49;15.37;;;10.67;;
20671;SDS011;10495;50.922;4.760;2022-12-07T04:14:15;17.10;;;10.80;;
20671;SDS011;10495;50.922;4.760;2022-12-07T04:16:55;13.53;;;10.13;;
20671;SDS011;10495;50.922;4.760;2022-12-07T04:19:23;13.27;;;10.00;;
20671;SDS011;10495;50.922;4.760;2022-12-07T04:21:51;12.90;;;9.67;;
20671;SDS011;10495;50.922;4.760;2022-12-07T04:24:16;13.87;;;9.67;;
20671;SDS011;10495;50.922;4.760;2022-12-07T04:26:43;12.80;;;9.93;;
20671;SDS011;10495;50.922;4.760;2022-12-07T04:29:09;11.87;;;8.77;;
20671;SDS011;10495;50.922;4.760;2022-12-07T04:31:35;12.07;;;8.80;;
20671;SDS011;10495;50.922;4.760;2022-12-07T04:34:01;11.63;;;8.43;;
20671;SDS011;10495;50.922;4.760;2022-12-07T04:36:28;11.40;;;8.03;;
20671;SDS011;10495;50.922;4.760;2022-12-07T04:38:54;11.83;;;8.47;;
20671;SDS011;10495;50.922;4.760;2022-12-07T04:41:21;12.03;;;8.23;;
20671;SDS011;10495;50.922;4.760;2022-12-07T04:43:57;13.03;;;8.73;;
20671;SDS011;10495;50.922;4.760;2022-12-07T04:46:25;12.60;;;8.30;;
20671;SDS011;10495;50.922;4.760;2022-12-07T04:48:52;11.53;;;8.80;;
20671;SDS011;10495;50.922;4.760;2022-12-07T04:51:23;15.63;;;10.07;;
20671;SDS011;10495;50.922;4.760;2022-12-07T04:53:51;14.37;;;9.30;;
20671;SDS011;10495;50.922;4.760;2022-12-07T04:56:17;11.67;;;9.20;;
20671;SDS011;10495;50.922;4.760;2022-12-07T04:58:44;14.30;;;9.27;;
20671;SDS011;10495;50.922;4.760;2022-12-07T05:01:11;15.77;;;10.30;;
20671;SDS011;10495;50.922;4.760;2022-12-07T05:03:37;12.50;;;9.33;;
20671;SDS011;10495;50.922;4.760;2022-12-07T05:06:03;13.20;;;9.07;;
20671;SDS011;10495;50.922;4.760;2022-12-07T05:08:30;11.40;;;8.43;;
20671;SDS011;10495;50.922;4.760;2022-12-07T05:10:56;11.83;;;8.13;;
20671;SDS011;10495;50.922;4.760;2022-12-07T05:13:22;12.53;;;8.83;;
20671;SDS011;10495;50.922;4.760;2022-12-07T05:15:48;14.07;;;9.47;;
20671;SDS011;10495;50.922;4.760;2022-12-07T05:18:14;14.27;;;9.70;;
20671;SDS011;10495;50.922;4.760;2022-12-07T05:20:40;11.53;;;9.17;;
20671;SDS011;10495;50.922;4.760;2022-12-07T05:23:06;13.50;;;9.27;;
20671;SDS011;10495;50.922;4.760;2022-12-07T05:25:32;11.97;;;9.20;;
20671;SDS011;10495;50.922;4.760;2022-12-07T05:27:57;13.23;;;8.60;;
20671;SDS011;10495;50.922;4.760;2022-12-07T05:30:23;12.27;;;9.03;;
20671;SDS011;10495;50.922;4.760;2022-12-07T05:32:50;13.63;;;8.17;;
20671;SDS011;10495;50.922;4.760;2022-12-07T05:35:16;15.30;;;9.73;;
20671;SDS011;10495;50.922;4.760;2022-12-07T05:37:42;14.37;;;9.03;;
20671;SDS011;10495;50.922;4.760;2022-12-07T05:40:09;13.83;;;9.47;;
20671;SDS011;10495;50.922;4.760;2022-12-07T05:42:35;14.23;;;9.60;;
20671;SDS011;10495;50.922;4.760;2022-12-07T05:45:00;14.87;;;10.30;;
20671;SDS011;10495;50.922;4.760;2022-12-07T05:47:26;15.73;;;9.93;;
20671;SDS011;10495;50.922;4.760;2022-12-07T05:49:52;14.67;;;9.23;;
20671;SDS011;10495;50.922;4.760;2022-12-07T05:52:17;14.00;;;9.30;;
20671;SDS011;10495;50.922;4.760;2022-12-07T05:54:43;13.83;;;9.30;;
20671;SDS011;10495;50.922;4.760;2022-12-07T05:57:09;10.77;;;8.23;;
20671;SDS011;10495;50.922;4.760;2022-12-07T05:59:34;11.77;;;8.43;;
20671;SDS011;10495;50.922;4.760;2022-12-07T06:02:04;12.77;;;8.53;;
20671;SDS011;10495;50.922;4.760;2022-12-07T06:04:32;12.47;;;9.13;;
20671;SDS011;10495;50.922;4.760;2022-12-07T06:06:59;13.80;;;8.80;;
20671;SDS011;10495;50.922;4.760;2022-12-07T06:09:26;12.67;;;8.30;;
20671;SDS011;10495;50.922;4.760;2022-12-07T06:11:53;11.23;;;8.70;;
20671;SDS011;10495;50.922;4.760;2022-12-07T06:14:38;12.87;;;8.70;;
20671;SDS011;10495;50.922;4.760;2022-12-07T06:17:04;14.47;;;8.70;;
20671;SDS011;10495;50.922;4.760;2022-12-07T06:19:30;13.53;;;9.50;;
20671;SDS011;10495;50.922;4.760;2022-12-07T06:21:55;13.17;;;8.97;;
20671;SDS011;10495;50.922;4.760;2022-12-07T06:24:21;11.43;;;8.50;;
20671;SDS011;10495;50.922;4.760;2022-12-07T06:26:47;12.40;;;8.90;;
20671;SDS011;10495;50.922;4.760;2022-12-07T06:29:13;12.23;;;8.57;;
20671;SDS011;10495;50.922;4.760;2022-12-07T06:31:39;12.37;;;8.77;;
20671;SDS011;10495;50.922;4.760;2022-12-07T06:34:06;14.80;;;9.80;;
20671;SDS011;10495;50.922;4.760;2022-12-07T06:36:34;11.20;;;8.70;;
20671;SDS011;10495;50.922;4.760;2022-12-07T06:39:00;17.73;;;10.37;;
20671;SDS011;10495;50.922;4.760;2022-12-07T06:41:27;14.30;;;9.63;;
20671;SDS011;10495;50.922;4.760;2022-12-07T06:43:53;14.20;;;9.57;;
20671;SDS011;10495;50.922;4.760;2022-12-07T06:46:18;11.77;;;9.17;;
20671;SDS011;10495;50.922;4.760;2022-12-07T06:48:44;14.47;;;9.57;;
20671;SDS011;10495;50.922;4.760;2022-12-07T06:51:10;11.73;;;8.70;;
20671;SDS011;10495;50.922;4.760;2022-12-07T06:53:36;13.67;;;9.30;;
20671;SDS011;10495;50.922;4.760;2022-12-07T06:56:02;11.73;;;8.20;;
20671;SDS011;10495;50.922;4.760;2022-12-07T06:58:29;14.03;;;9.87;;
20671;SDS011;10495;50.922;4.760;2022-12-07T07:00:54;13.60;;;8.20;;
20671;SDS011;10495;50.922;4.760;2022-12-07T07:03:20;15.73;;;9.77;;
20671;SDS011;10495;50.922;4.760;2022-12-07T07:05:46;12.50;;;8.77;;
20671;SDS011;10495;50.922;4.760;2022-12-07T07:08:11;11.97;;;8.37;;
20671;SDS011;10495;50.922;4.760;2022-12-07T07:10:37;11.83;;;8.17;;
20671;SDS011;10495;50.922;4.760;2022-12-07T07:13:03;12.03;;;8.47;;
20671;SDS011;10495;50.922;4.760;2022-12-07T07:15:29;12.97;;;8.93;;
20671;SDS011;10495;50.922;4.760;2022-12-07T07:17:55;12.17;;;8.33;;
20671;SDS011;10495;50.922;4.760;2022-12-07T07:20:21;10.87;;;8.53;;
20671;SDS011;10495;50.922;4.760;2022-12-07T07:22:47;16.93;;;10.97;;
20671;SDS011;10495;50.922;4.760;2022-12-07T07:25:13;12.63;;;9.00;;
20671;SDS011;10495;50.922;4.760;2022-12-07T07:27:39;17.77;;;10.80;;
20671;SDS011;10495;50.922;4.760;2022-12-07T07:30:05;17.17;;;10.13;;
20671;SDS011;10495;50.922;4.760;2022-12-07T07:32:31;17.43;;;10.00;;
20671;SDS011;10495;50.922;4.760;2022-12-07T07:34:57;15.50;;;10.20;;
20671;SDS011;10495;50.922;4.760;2022-12-07T07:37:22;16.17;;;9.97;;
20671;SDS011;10495;50.922;4.760;2022-12-07T07:39:48;14.20;;;9.70;;
20671;SDS011;10495;50.922;4.760;2022-12-07T07:42:14;11.43;;;8.60;;
20671;SDS011;10495;50.922;4.760;2022-12-07T07:44:40;14.03;;;9.20;;
20671;SDS011;10495;50.922;4.760;2022-12-07T07:47:05;10.87;;;7.60;;
20671;SDS011;10495;50.922;4.760;2022-12-07T07:49:31;12.83;;;7.50;;
20671;SDS011;10495;50.922;4.760;2022-12-07T07:51:56;10.40;;;6.73;;
20671;SDS011;10495;50.922;4.760;2022-12-07T07:54:22;11.20;;;7.47;;
20671;SDS011;10495;50.922;4.760;2022-12-07T07:56:47;13.07;;;8.10;;
20671;SDS011;10495;50.922;4.760;2022-12-07T07:59:14;10.57;;;6.53;;
20671;SDS011;10495;50.922;4.760;2022-12-07T08:01:40;10.57;;;6.93;;
20671;SDS011;10495;50.922;4.760;2022-12-07T08:04:05;9.80;;;6.43;;
20671;SDS011;10495;50.922;4.760;2022-12-07T08:06:31;12.23;;;6.97;;
20671;SDS011;10495;50.922;4.760;2022-12-07T08:08:57;8.33;;;6.50;;
20671;SDS011;10495;50.922;4.760;2022-12-07T08:11:23;8.73;;;6.33;;
20671;SDS011;10495;50.922;4.760;2022-12-07T08:13:49;7.60;;;5.83;;
20671;SDS011;10495;50.922;4.760;2022-12-07T08:16:15;8.10;;;6.60;;
20671;SDS011;10495;50.922;4.760;2022-12-07T08:18:41;8.50;;;5.93;;
20671;SDS011;10495;50.922;4.760;2022-12-07T08:21:08;9.93;;;7.07;;
20671;SDS011;10495;50.922;4.760;2022-12-07T08:23:36;10.83;;;7.43;;
20671;SDS011;10495;50.922;4.760;2022-12-07T08:26:03;16.63;;;8.97;;
20671;SDS011;10495;50.922;4.760;2022-12-07T08:28:30;17.73;;;9.53;;
20671;SDS011;10495;50.922;4.760;2022-12-07T08:31:00;12.30;;;8.93;;
20671;SDS011;10495;50.922;4.760;2022-12-07T08:33:29;20.87;;;10.33;;
20671;SDS011;10495;50.922;4.760;2022-12-07T08:35:59;14.43;;;10.70;;
20671;SDS011;10495;50.922;4.760;2022-12-07T08:38:29;11.13;;;8.70;;
20671;SDS011;10495;50.922;4.760;2022-12-07T08:40:55;18.20;;;9.77;;
20671;SDS011;10495;50.922;4.760;2022-12-07T08:43:22;11.57;;;7.93;;
20671;SDS011;10495;50.922;4.760;2022-12-07T08:46:10;11.07;;;8.20;;
20671;SDS011;10495;50.922;4.760;2022-12-07T08:48:38;13.67;;;9.77;;
20671;SDS011;10495;50.922;4.760;2022-12-07T08:51:08;13.80;;;9.67;;
20671;SDS011;10495;50.922;4.760;2022-12-07T08:53:33;29.07;;;15.50;;
20671;SDS011;10495;50.922;4.760;2022-12-07T08:56:00;20.00;;;12.37;;
20671;SDS011;10495;50.922;4.760;2022-12-07T08:58:26;16.63;;;11.53;;
20671;SDS011;10495;50.922;4.760;2022-12-07T09:00:52;19.07;;;10.93;;
20671;SDS011;10495;50.922;4.760;2022-12-07T09:03:17;19.57;;;9.43;;
20671;SDS011;10495;50.922;4.760;2022-12-07T09:05:43;14.63;;;8.80;;
20671;SDS011;10495;50.922;4.760;2022-12-07T09:08:09;12.23;;;7.83;;
20671;SDS011;10495;50.922;4.760;2022-12-07T09:10:35;14.70;;;8.43;;
20671;SDS011;10495;50.922;4.760;2022-12-07T09:13:00;14.97;;;8.80;;
20671;SDS011;10495;50.922;4.760;2022-12-07T09:15:26;15.93;;;8.43;;
20671;SDS011;10495;50.922;4.760;2022-12-07T09:17:53;15.13;;;8.93;;
20671;SDS011;10495;50.922;4.760;2022-12-07T09:20:18;12.87;;;8.67;;
20671;SDS011;10495;50.922;4.760;2022-12-07T09:22:44;15.90;;;9.73;;
20671;SDS011;10495;50.922;4.760;2022-12-07T09:25:09;14.37;;;9.43;;
20671;SDS011;10495;50.922;4.760;2022-12-07T09:27:35;22.73;;;9.77;;
20671;SDS011;10495;50.922;4.760;2022-12-07T09:30:01;14.60;;;9.23;;
20671;SDS011;10495;50.922;4.760;2022-12-07T09:32:26;20.60;;;8.93;;
20671;SDS011;10495;50.922;4.760;2022-12-07T09:34:52;17.67;;;7.90;;
20671;SDS011;10495;50.922;4.760;2022-12-07T09:37:18;13.80;;;9.20;;
20671;SDS011;10495;50.922;4.760;2022-12-07T09:39:43;13.70;;;8.50;;
20671;SDS011;10495;50.922;4.760;2022-12-07T09:42:11;18.53;;;8.33;;
20671;SDS011;10495;50.922;4.760;2022-12-07T09:45:26;12.93;;;7.27;;
20671;SDS011;10495;50.922;4.760;2022-12-07T09:47:57;11.10;;;8.27;;
20671;SDS011;10495;50.922;4.760;2022-12-07T09:50:25;11.77;;;8.33;;
20671;SDS011;10495;50.922;4.760;2022-12-07T09:52:52;11.90;;;7.90;;
20671;SDS011;10495;50.922;4.760;2022-12-07T09:55:27;12.47;;;7.77;;
20671;SDS011;10495;50.922;4.760;2022-12-07T09:57:54;9.90;;;7.40;;
20671;SDS011;10495;50.922;4.760;2022-12-07T10:00:21;13.80;;;7.53;;
20671;SDS011;10495;50.922;4.760;2022-12-07T10:03:01;13.03;;;8.27;;
20671;SDS011;10495;50.922;4.760;2022-12-07T10:07:54;12.70;;;7.33;;
20671;SDS011;10495;50.922;4.760;2022-12-07T10:10:25;11.30;;;8.00;;
20671;SDS011;10495;50.922;4.760;2022-12-07T10:13:01;11.60;;;6.90;;
20671;SDS011;10495;50.922;4.760;2022-12-07T10:18:13;10.57;;;7.00;;
20671;SDS011;10495;50.922;4.760;2022-12-07T10:20:48;11.37;;;7.50;;
20671;SDS011;10495;50.922;4.760;2022-12-07T10:23:15;15.07;;;8.23;;
20671;SDS011;10495;50.922;4.760;2022-12-07T10:25:42;17.50;;;8.23;;
20671;SDS011;10495;50.922;4.760;2022-12-07T10:30:54;11.97;;;7.57;;
20671;SDS011;10495;50.922;4.760;2022-12-07T10:36:27;15.60;;;7.63;;
20671;SDS011;10495;50.922;4.760;2022-12-07T10:39:04;10.60;;;6.87;;
20671;SDS011;10495;50.922;4.760;2022-12-07T10:41:56;11.13;;;6.87;;
20671;SDS011;10495;50.922;4.760;2022-12-07T10:44:26;11.70;;;6.37;;
20671;SDS011;10495;50.922;4.760;2022-12-07T10:47:09;10.20;;;5.87;;
20671;SDS011;10495;50.922;4.760;2022-12-07T10:55:13;11.13;;;5.50;;
20671;SDS011;10495;50.922;4.760;2022-12-07T10:58:19;7.70;;;5.40;;
20671;SDS011;10495;50.922;4.760;2022-12-07T11:01:06;9.27;;;5.23;;
20671;SDS011;10495;50.922;4.760;2022-12-07T11:18:26;11.33;;;5.63;;
20671;SDS011;10495;50.922;4.760;2022-12-07T11:26:34;9.37;;;6.10;;
20671;SDS011;10495;50.922;4.760;2022-12-07T11:37:33;14.93;;;5.90;;
20671;SDS011;10495;50.922;4.760;2022-12-07T11:42:58;9.83;;;6.43;;
20671;SDS011;10495;50.922;4.760;2022-12-07T11:45:34;9.50;;;5.67;;
20671;SDS011;10495;50.922;4.760;2022-12-07T11:48:10;14.23;;;6.80;;
20671;SDS011;10495;50.922;4.760;2022-12-07T11:50:57;11.60;;;5.77;;
20671;SDS011;10495;50.922;4.760;2022-12-07T11:53:30;10.27;;;5.63;;
20671;SDS011;10495;50.922;4.760;2022-12-07T11:56:11;12.67;;;5.70;;
20671;SDS011;10495;50.922;4.760;2022-12-07T12:03:47;13.80;;;6.60;;
20671;SDS011;10495;50.922;4.760;2022-12-07T12:06:16;9.27;;;5.70;;
20671;SDS011;10495;50.922;4.760;2022-12-07T12:08:44;13.67;;;5.70;;
20671;SDS011;10495;50.922;4.760;2022-12-07T12:22:20;17.30;;;6.70;;
20671;SDS011;10495;50.922;4.760;2022-12-07T12:24:52;10.63;;;6.37;;
20671;SDS011;10495;50.922;4.760;2022-12-07T12:27:30;11.00;;;6.07;;
20671;SDS011;10495;50.922;4.760;2022-12-07T12:30:00;11.93;;;5.63;;
20671;SDS011;10495;50.922;4.760;2022-12-07T12:32:41;7.77;;;6.17;;
20671;SDS011;10495;50.922;4.760;2022-12-07T12:35:29;12.17;;;6.37;;
20671;SDS011;10495;50.922;4.760;2022-12-07T12:37:55;9.77;;;6.87;;
20671;SDS011;10495;50.922;4.760;2022-12-07T12:41:01;11.93;;;7.10;;
20671;SDS011;10495;50.922;4.760;2022-12-07T12:43:49;9.67;;;6.40;;
20671;SDS011;10495;50.922;4.760;2022-12-07T12:49:15;9.80;;;5.93;;
20671;SDS011;10495;50.922;4.760;2022-12-07T12:54:58;10.47;;;5.40;;
20671;SDS011;10495;50.922;4.760;2022-12-07T12:57:38;8.43;;;5.37;;
20671;SDS011;10495;50.922;4.760;2022-12-07T13:00:20;10.87;;;5.17;;
20671;SDS011;10495;50.922;4.760;2022-12-07T13:02:53;12.40;;;5.03;;
20671;SDS011;10495;50.922;4.760;2022-12-07T13:05:24;7.43;;;4.50;;
20671;SDS011;10495;50.922;4.760;2022-12-07T13:08:01;6.70;;;4.73;;
20671;SDS011;10495;50.922;4.760;2022-12-07T13:10:45;10.63;;;5.13;;
20671;SDS011;10495;50.922;4.760;2022-12-07T13:20:48;8.47;;;4.07;;
20671;SDS011;10495;50.922;4.760;2022-12-07T13:23:37;10.37;;;4.40;;
20671;SDS011;10495;50.922;4.760;2022-12-07T13:34:01;8.17;;;3.30;;
20671;SDS011;10495;50.922;4.760;2022-12-07T13:36:32;6.23;;;3.57;;
20671;SDS011;10495;50.922;4.760;2022-12-07T13:39:10;7.37;;;4.17;;
20671;SDS011;10495;50.922;4.760;2022-12-07T13:41:41;4.70;;;2.73;;
20671;SDS011;10495;50.922;4.760;2022-12-07T13:44:11;3.77;;;1.80;;
20671;SDS011;10495;50.922;4.760;2022-12-07T13:51:53;4.80;;;2.20;;
20671;SDS011;10495;50.922;4.760;2022-12-07T13:54:20;5.97;;;2.50;;
20671;SDS011;10495;50.922;4.760;2022-12-07T13:56:50;4.80;;;2.50;;
20671;SDS011;10495;50.922;4.760;2022-12-07T13:59:18;7.37;;;2.83;;
20671;SDS011;10495;50.922;4.760;2022-12-07T14:01:47;3.87;;;2.47;;
20671;SDS011;10495;50.922;4.760;2022-12-07T14:05:05;4.17;;;2.60;;
20671;SDS011;10495;50.922;4.760;2022-12-07T14:07:20;36.60;;;18.47;;
20671;SDS011;10495;50.922;4.760;2022-12-07T14:10:22;29.40;;;17.43;;
20671;SDS011;10495;50.922;4.760;2022-12-07T14:12:49;30.27;;;16.23;;
20671;SDS011;10495;50.922;4.760;2022-12-07T14:15:19;24.40;;;12.20;;
20671;SDS011;10495;50.922;4.760;2022-12-07T14:17:51;9.87;;;5.93;;
20671;SDS011;10495;50.922;4.760;2022-12-07T14:20:33;9.80;;;6.30;;
20671;SDS011;10495;50.922;4.760;2022-12-07T14:22:59;7.13;;;5.00;;
20671;SDS011;10495;50.922;4.760;2022-12-07T14:25:25;7.17;;;4.87;;
20671;SDS011;10495;50.922;4.760;2022-12-07T14:30:23;9.03;;;5.40;;
20671;SDS011;10495;50.922;4.760;2022-12-07T14:32:56;9.07;;;5.47;;
20671;SDS011;10495;50.922;4.760;2022-12-07T14:35:26;5.40;;;3.73;;
20671;SDS011;10495;50.922;4.760;2022-12-07T14:37:52;6.60;;;4.50;;
20671;SDS011;10495;50.922;4.760;2022-12-07T14:40:22;6.20;;;3.87;;
20671;SDS011;10495;50.922;4.760;2022-12-07T14:43:08;3.83;;;3.43;;
20671;SDS011;10495;50.922;4.760;2022-12-07T14:45:36;5.97;;;3.40;;
20671;SDS011;10495;50.922;4.760;2022-12-07T14:48:02;3.37;;;2.53;;
20671;SDS011;10495;50.922;4.760;2022-12-07T14:50:28;3.00;;;1.93;;
20671;SDS011;10495;50.922;4.760;2022-12-07T14:52:55;3.27;;;1.80;;
20671;SDS011;10495;50.922;4.760;2022-12-07T14:55:25;4.33;;;1.83;;
20671;SDS011;10495;50.922;4.760;2022-12-07T14:57:52;3.17;;;1.80;;
20671;SDS011;10495;50.922;4.760;2022-12-07T15:00:18;2.70;;;1.73;;
20671;SDS011;10495;50.922;4.760;2022-12-07T15:02:45;7.67;;;3.17;;
20671;SDS011;10495;50.922;4.760;2022-12-07T15:05:12;7.93;;;5.70;;
20671;SDS011;10495;50.922;4.760;2022-12-07T15:07:38;9.63;;;5.60;;
20671;SDS011;10495;50.922;4.760;2022-12-07T15:10:04;8.47;;;5.27;;
20671;SDS011;10495;50.922;4.760;2022-12-07T15:12:31;10.10;;;5.10;;
20671;SDS011;10495;50.922;4.760;2022-12-07T15:14:56;8.93;;;5.50;;
20671;SDS011;10495;50.922;4.760;2022-12-07T15:17:22;10.17;;;4.80;;
20671;SDS011;10495;50.922;4.760;2022-12-07T15:19:47;5.63;;;3.93;;
20671;SDS011;10495;50.922;4.760;2022-12-07T15:22:13;5.53;;;3.23;;
20671;SDS011;10495;50.922;4.760;2022-12-07T15:24:39;6.40;;;3.90;;
20671;SDS011;10495;50.922;4.760;2022-12-07T15:27:04;6.37;;;4.17;;
20671;SDS011;10495;50.922;4.760;2022-12-07T15:29:30;7.83;;;5.20;;
20671;SDS011;10495;50.922;4.760;2022-12-07T15:31:56;6.20;;;4.50;;
20671;SDS011;10495;50.922;4.760;2022-12-07T15:34:22;6.17;;;4.30;;
20671;SDS011;10495;50.922;4.760;2022-12-07T15:36:53;5.47;;;4.03;;
20671;SDS011;10495;50.922;4.760;2022-12-07T15:39:19;5.50;;;4.17;;
20671;SDS011;10495;50.922;4.760;2022-12-07T15:41:45;6.93;;;4.97;;
20671;SDS011;10495;50.922;4.760;2022-12-07T15:44:11;8.27;;;5.10;;
20671;SDS011;10495;50.922;4.760;2022-12-07T15:46:56;5.57;;;4.23;;
20671;SDS011;10495;50.922;4.760;2022-12-07T15:49:21;8.17;;;4.30;;
20671;SDS011;10495;50.922;4.760;2022-12-07T15:51:47;8.43;;;4.00;;
20671;SDS011;10495;50.922;4.760;2022-12-07T15:54:18;4.60;;;3.50;;
20671;SDS011;10495;50.922;4.760;2022-12-07T15:56:53;5.23;;;3.90;;
20671;SDS011;10495;50.922;4.760;2022-12-07T15:59:20;6.00;;;4.30;;
20671;SDS011;10495;50.922;4.760;2022-12-07T16:01:45;7.20;;;4.67;;
20671;SDS011;10495;50.922;4.760;2022-12-07T16:04:11;8.77;;;5.73;;
20671;SDS011;10495;50.922;4.760;2022-12-07T16:06:37;9.40;;;5.67;;
20671;SDS011;10495;50.922;4.760;2022-12-07T16:09:03;6.93;;;4.93;;
20671;SDS011;10495;50.922;4.760;2022-12-07T16:11:29;8.57;;;4.73;;
20671;SDS011;10495;50.922;4.760;2022-12-07T16:13:55;4.83;;;4.17;;
20671;SDS011;10495;50.922;4.760;2022-12-07T16:16:21;5.80;;;4.40;;
20671;SDS011;10495;50.922;4.760;2022-12-07T16:18:47;5.13;;;4.00;;
20671;SDS011;10495;50.922;4.760;2022-12-07T16:21:20;7.37;;;4.90;;
20671;SDS011;10495;50.922;4.760;2022-12-07T16:23:46;6.93;;;5.30;;
20671;SDS011;10495;50.922;4.760;2022-12-07T16:26:13;8.67;;;5.77;;
20671;SDS011;10495;50.922;4.760;2022-12-07T16:28:41;8.00;;;5.37;;
20671;SDS011;10495;50.922;4.760;2022-12-07T16:31:08;7.97;;;5.87;;
20671;SDS011;10495;50.922;4.760;2022-12-07T16:33:36;9.17;;;5.97;;
20671;SDS011;10495;50.922;4.760;2022-12-07T16:36:03;6.90;;;4.90;;
20671;SDS011;10495;50.922;4.760;2022-12-07T16:38:30;7.10;;;4.93;;
20671;SDS011;10495;50.922;4.760;2022-12-07T16:40:56;10.20;;;4.60;;
20671;SDS011;10495;50.922;4.760;2022-12-07T16:43:23;10.07;;;5.20;;
20671;SDS011;10495;50.922;4.760;2022-12-07T16:45:49;8.07;;;5.67;;
20671;SDS011;10495;50.922;4.760;2022-12-07T16:48:15;7.43;;;5.40;;
20671;SDS011;10495;50.922;4.760;2022-12-07T16:50:42;7.63;;;4.70;;
20671;SDS011;10495;50.922;4.760;2022-12-07T16:53:08;6.40;;;4.20;;
20671;SDS011;10495;50.922;4.760;2022-12-07T16:55:36;6.30;;;4.67;;